METAR AND TAF INFORMATION
METAR FOR LGAD
ADDS - METARS form results

(1309 UTC 21 April 2019)
Data provider http://aviationweather.gov/metar/data/
 
METAR text: LGAD 211250Z 29007KT 9999 FEW020 17/11 Q1024
Conditions at: LGAD (ANDRAVIDA (CIV/A, GR) observed 1250 UTC 21 April 2019
Temperature: 17.0°C (63°F)
Dewpoint: 11.0°C (52°F) [RH = 68%]
Pressure (altimeter): 30.24 inches Hg (1024.0 mb)
Winds: from the WNW (290 degrees) at 8 MPH (7 knots; 3.6 m/s)
Visibility: 6 or more miles (10+ km)
Ceiling: at least 12,000 feet AGL
Clouds: few clouds at 2000 feet AGL
Weather: no significant weather observed at this time

METAR text: LGAD 211220Z 30008KT 9999 FEW020 17/11 Q1024
Conditions at: LGAD (ANDRAVIDA (CIV/A, GR) observed 1220 UTC 21 April 2019
Temperature: 17.0°C (63°F)
Dewpoint: 11.0°C (52°F) [RH = 68%]
Pressure (altimeter): 30.24 inches Hg (1024.0 mb)
Winds: from the WNW (300 degrees) at 9 MPH (8 knots; 4.1 m/s)
Visibility: 6 or more miles (10+ km)
Ceiling: at least 12,000 feet AGL
Clouds: few clouds at 2000 feet AGL
Weather: no significant weather observed at this time

Forecast for: LGAD (ANDRAVIDA (CIV/A, GR)
Text: TAF LGAD 211100Z 2112/2121 30008KT 9999 FEW025 SCT080
Forecast period: 1200 to 1600 UTC 21 April 2019
Forecast type: FROM: standard forecast or significant change
Winds: from the WNW (300 degrees) at 9 MPH (8 knots; 4.1 m/s)
Visibility: 6 or more miles 10+ km)
Ceiling: at least 12,000 feet AGL
Clouds: few clouds at 2500 feet AGL
scattered clouds at 8000 feet AGL
Weather: no significant weather forecast for this period
Text: BECMG 2116/2118 17008KT
Forecast period: 1600 to 2100 UTC 21 April 2019
Forecast type: BECOMING: Conditions expected to become as follows by 1800 UTC 21 April 2019
Winds: from the S (170 degrees) at 9 MPH (8 knots; 4.1 m/s)
Visibility: 6 or more miles 10+ km)
Ceiling: at least 12,000 feet AGL
Clouds: few clouds at 2500 feet AGL
scattered clouds at 8000 feet AGL
Weather: no significant weather forecast for this period

 ΧΑΡΤΗΣ ΑΕΡΟΔΡΟΜΙΟΥ

 RUNWAY INFORMATION
Διάδρομος 16 Runway length 10299 ft Runway width 148 ft
Runway elevation 31 ft Runway displaced threshold 0 ft Runway heading 165
Διάδρομος 34 Runway length 10299 ft Runway width 148 ft
Runway elevation 55 ft Runway displaced threshold 0 ft Runway heading 345

 ΣΥΧΝΟΤΗΤΕΣ ΑΕΡΟΔΡΟΜΙΟΥ
Τύπος APP Όνομα APP Συχνότητα 120.65 MHZ
Τύπος TWR Όνομα TWR Συχνότητα 120.65 MHZ

 AIRPORT NEAR NAVIGATION AIDS
Τύπος TACAN Όνομα Andravida Συχνότητα 133400 KHZ
Τύπος NDB Όνομα Amalias Συχνότητα 367 KHZ



Hellenic Air Force Virtual - All rights reserved 2019 - Powered by VAM